Time;durP1;ratioP1;P1;durP2;ratioP2;P2;SDS_P1;SDS_P2;PMS_P1;PMS_P2;Temp;Humidity;BMP_temperature;BMP_pressure;BME280_temperature;BME280_humidity;BME280_pressure;Samples;Min_cycle;Max_cycle;Signal;HPM_P1;HPM_P2
2023/09/25 00:01:52;;;;;;;;;;;;;;;16.52;54.92;100991.72;5055610;28;996;-57
2023/09/25 00:04:17;;;;;;;;;;;;;;;16.54;54.23;100988.72;5069049;28;1349;-56
2023/09/25 00:06:43;;;;;;;;;;;;;;;16.68;55.37;100987.13;5075706;28;1079;-57
2023/09/25 00:09:10;;;;;;;;;;;;;;;17.58;55.95;100996.09;5078979;28;1054;-57
2023/09/25 00:11:36;;;;;;;;;;;;;;;17.08;56.30;100993.03;5071093;28;2376;-57
2023/09/25 00:14:02;;;;;;;;;;;;;;;16.91;55.68;100990.50;5060340;28;1937;-57
2023/09/25 00:16:27;;;;;;;;;;;;;;;16.81;55.30;100993.22;5071112;28;1054;-57
2023/09/25 00:18:53;;;;;;;;;;;;;;;16.76;54.97;100992.09;5064656;28;1162;-57
2023/09/25 00:21:18;;;;;;;;;;;;;;;16.64;54.91;100994.25;5066792;28;1086;-57
2023/09/25 00:23:44;;;;;;;;;;;;;;;16.63;54.42;100991.75;5077912;28;1113;-58
2023/09/25 00:26:09;;;;;;;;;;;;;;;16.57;54.39;100990.91;5066179;28;1157;-57
2023/09/25 00:28:43;;;;;;;;;;;;;;;16.53;54.13;100989.81;5045363;28;1062;-57
2023/09/25 00:31:09;;;;;;;;;;;;;;;16.47;54.29;100993.63;5067026;28;907;-58
2023/09/25 00:33:34;;;;;;;;;;;;;;;16.63;55.34;100989.84;5064710;28;1988;-58
2023/09/25 00:36:00;;;;;;;;;;;;;;;17.70;55.83;100998.59;5078257;28;1046;-57
2023/09/25 00:38:26;;;;;;;;;;;;;;;17.15;56.52;100995.50;5078540;28;1158;-58
2023/09/25 00:40:51;;;;;;;;;;;;;;;16.98;55.78;100996.56;5070455;28;1853;-57
2023/09/25 00:43:17;;;;;;;;;;;;;;;16.81;55.54;100995.94;5065087;28;1024;-57
2023/09/25 00:45:42;;;;;;;;;;;;;;;16.76;55.19;101005.00;5052608;28;1054;-57
2023/09/25 00:48:10;;;;;;;;;;;;;;;16.69;54.86;101004.41;5055435;28;1186;-58
2023/09/25 00:50:36;;;;;;;;;;;;;;;16.61;54.75;100994.78;5060354;28;1099;-57
2023/09/25 00:53:06;;;;;;;;;;;;;;;16.57;54.35;100996.41;5058106;28;1914;-57
2023/09/25 00:55:32;;;;;;;;;;;;;;;16.52;54.52;101004.63;5050832;28;897;-57
2023/09/25 00:57:58;;;;;;;;;;;;;;;16.48;54.21;100993.38;5062714;28;1062;-58
2023/09/25 01:00:24;;;;;;;;;;;;;;;16.47;54.33;100985.41;5049115;28;1004;-57
2023/09/25 01:02:50;;;;;;;;;;;;;;;16.41;54.16;100988.09;5057746;28;1151;-57
2023/09/25 01:05:16;;;;;;;;;;;;;;;17.39;56.03;100998.56;5048583;28;1023;-57
2023/09/25 01:07:42;;;;;;;;;;;;;;;17.20;56.32;100988.09;5068741;28;1099;-57
2023/09/25 01:10:14;;;;;;;;;;;;;;;16.86;56.31;100993.22;5060143;28;1306;-57
2023/09/25 01:12:46;;;;;;;;;;;;;;;16.79;55.65;100993.47;5077566;28;2329;-57
2023/09/25 01:15:13;;;;;;;;;;;;;;;16.74;55.22;100986.03;5067489;28;1150;-58
2023/09/25 01:17:39;;;;;;;;;;;;;;;16.62;54.93;100982.72;5071563;28;1137;-59
2023/09/25 01:20:13;;;;;;;;;;;;;;;16.57;54.71;100980.75;5059558;28;833;-57
2023/09/25 01:22:39;;;;;;;;;;;;;;;16.56;54.47;100981.03;5044608;28;1275;-57
2023/09/25 01:25:06;;;;;;;;;;;;;;;16.50;54.52;100982.09;5077239;28;1022;-58
2023/09/25 01:27:31;;;;;;;;;;;;;;;16.43;54.49;100974.94;5041153;28;1182;-57
2023/09/25 01:29:57;;;;;;;;;;;;;;;16.38;54.42;100979.56;5051621;28;1603;-58
2023/09/25 01:32:22;;;;;;;;;;;;;;;16.38;54.25;100983.16;5068767;28;1902;-57
2023/09/25 01:34:48;;;;;;;;;;;;;;;16.34;54.35;100976.56;5069577;28;1000;-57
2023/09/25 01:37:13;;;;;;;;;;;;;;;17.33;56.32;100972.19;5045922;28;1034;-56
2023/09/25 01:39:39;;;;;;;;;;;;;;;17.27;56.72;100976.84;5065806;28;1138;-57
2023/09/25 01:42:04;;;;;;;;;;;;;;;16.99;56.27;100983.69;5057588;28;1852;-57
2023/09/25 01:44:30;;;;;;;;;;;;;;;16.82;56.04;100981.94;5061904;28;970;-56
2023/09/25 01:46:56;;;;;;;;;;;;;;;16.76;55.53;100978.38;5057276;28;1031;-56
2023/09/25 01:49:22;;;;;;;;;;;;;;;16.68;55.33;100983.56;5051292;28;1015;-57
2023/09/25 01:51:49;;;;;;;;;;;;;;;16.64;55.06;100979.69;5058108;28;1249;-57
2023/09/25 01:54:14;;;;;;;;;;;;;;;16.52;55.10;100971.69;5051636;28;1969;-57
2023/09/25 01:56:40;;;;;;;;;;;;;;;16.49;54.95;100972.22;5055544;28;1139;-57
2023/09/25 01:59:06;;;;;;;;;;;;;;;16.48;54.83;100973.31;5046716;28;1150;-57
2023/09/25 02:01:31;;;;;;;;;;;;;;;16.43;54.71;100972.19;5044554;28;1420;-57
2023/09/25 02:03:58;;;;;;;;;;;;;;;16.42;54.54;100972.47;5064848;28;1011;-57
2023/09/25 02:06:23;;;;;;;;;;;;;;;17.12;56.56;100974.06;5039216;28;924;-57
2023/09/25 02:08:48;;;;;;;;;;;;;;;17.34;56.86;100963.66;5061049;28;868;-57
2023/09/25 02:11:14;;;;;;;;;;;;;;;16.99;56.70;100968.00;5057323;28;1830;-57
2023/09/25 02:13:40;;;;;;;;;;;;;;;16.82;56.25;100962.72;5047317;28;1972;-57
2023/09/25 02:16:05;;;;;;;;;;;;;;;16.75;55.62;100962.97;5075475;28;1146;-57
2023/09/25 02:18:31;;;;;;;;;;;;;;;16.66;55.63;100958.28;5047169;28;1137;-57
2023/09/25 02:20:56;;;;;;;;;;;;;;;16.60;55.28;100962.94;5039660;28;1183;-57
2023/09/25 02:23:22;;;;;;;;;;;;;;;16.61;54.86;100959.09;5049159;28;1055;-57
2023/09/25 02:25:48;;;;;;;;;;;;;;;16.54;54.64;100964.00;5076480;28;1022;-57
2023/09/25 02:28:14;;;;;;;;;;;;;;;17.47;57.11;100969.72;5065543;28;1066;-57
2023/09/25 02:30:39;;;;;;;;;;;;;;;17.22;56.82;100963.09;5068761;28;1162;-57
2023/09/25 02:33:05;;;;;;;;;;;;;;;16.96;56.50;100971.31;5055069;28;1905;-57
2023/09/25 02:35:31;;;;;;;;;;;;;;;16.84;56.04;100970.69;5071571;28;1047;-57
2023/09/25 02:37:58;;;;;;;;;;;;;;;16.76;55.62;100972.88;5067711;28;1082;-57
2023/09/25 02:40:24;;;;;;;;;;;;;;;16.69;55.45;100969.56;5071037;28;1074;-57
2023/09/25 02:42:49;;;;;;;;;;;;;;;16.66;54.92;100978.34;5056434;28;2892;-57
2023/09/25 02:45:15;;;;;;;;;;;;;;;16.61;55.00;100983.81;5059689;28;1067;-57
2023/09/25 02:47:40;;;;;;;;;;;;;;;16.55;54.70;100984.84;5056365;28;1065;-57
2023/09/25 02:50:06;;;;;;;;;;;;;;;16.46;54.68;100979.06;5060257;28;1007;-56
2023/09/25 02:52:32;;;;;;;;;;;;;;;16.51;54.49;100986.47;5075878;28;1976;-56
2023/09/25 02:54:57;;;;;;;;;;;;;;;16.45;54.33;100982.88;5062577;28;1043;-57
2023/09/25 02:57:23;;;;;;;;;;;;;;;16.42;55.28;100983.44;5069092;28;897;-57
2023/09/25 02:59:49;;;;;;;;;;;;;;;17.55;56.54;100983.72;5053523;28;1090;-57
2023/09/25 03:02:15;;;;;;;;;;;;;;;17.07;56.92;100988.66;5056172;28;1004;-57
2023/09/25 03:04:40;;;;;;;;;;;;;;;16.85;56.13;100986.09;5060448;28;1151;-57
2023/09/25 03:07:06;;;;;;;;;;;;;;;16.81;55.77;100993.22;5076077;28;1110;-57
2023/09/25 03:09:32;;;;;;;;;;;;;;;16.71;55.20;100988.50;5052894;28;1579;-57
2023/09/25 03:11:57;;;;;;;;;;;;;;;16.68;54.89;100989.88;5055795;28;1833;-56
2023/09/25 03:14:23;;;;;;;;;;;;;;;16.62;54.62;100990.94;5056081;28;1914;-54
2023/09/25 03:16:48;;;;;;;;;;;;;;;16.55;54.51;100987.59;5074938;28;1036;-56
2023/09/25 03:19:14;;;;;;;;;;;;;;;16.48;54.73;100987.03;5061748;28;1198;-55
2023/09/25 03:21:41;;;;;;;;;;;;;;;16.42;54.60;100994.41;5056850;28;862;-55
2023/09/25 03:24:07;;;;;;;;;;;;;;;16.41;54.31;100993.59;5069134;28;1022;-56
2023/09/25 03:26:32;;;;;;;;;;;;;;;16.37;54.41;100991.66;5065924;28;991;-56
2023/09/25 03:28:58;;;;;;;;;;;;;;;17.01;56.06;100998.78;5075303;28;1110;-56
2023/09/25 03:31:23;;;;;;;;;;;;;;;17.40;56.38;101006.56;5075630;28;994;-57
2023/09/25 03:33:49;;;;;;;;;;;;;;;16.98;56.33;101002.06;5059085;28;1983;-57
2023/09/25 03:36:15;;;;;;;;;;;;;;;16.82;55.77;100998.44;5042764;28;1255;-57
2023/09/25 03:38:41;;;;;;;;;;;;;;;16.70;55.57;100995.91;5043729;28;1284;-58
2023/09/25 03:41:06;;;;;;;;;;;;;;;16.60;55.22;101002.19;5041917;28;1826;-57
2023/09/25 03:43:32;;;;;;;;;;;;;;;16.57;54.90;100996.41;5077193;28;1234;-48
2023/09/25 03:45:57;;;;;;;;;;;;;;;16.53;54.76;101003.53;5033510;28;1219;-48
2023/09/25 03:48:23;;;;;;;;;;;;;;;16.49;54.31;100999.66;5060035;28;1131;-48
2023/09/25 03:50:49;;;;;;;;;;;;;;;16.46;54.36;101000.22;5041924;28;1258;-49
2023/09/25 03:53:15;;;;;;;;;;;;;;;16.47;54.82;101001.88;5041868;28;1910;-52
2023/09/25 03:55:40;;;;;;;;;;;;;;;16.47;54.41;101007.34;5059445;28;1147;-47
2023/09/25 03:58:06;;;;;;;;;;;;;;;16.46;54.87;101005.69;5054246;28;1098;-45
2023/09/25 04:00:32;;;;;;;;;;;;;;;17.52;56.57;101000.78;5066883;28;972;-48
2023/09/25 04:02:57;;;;;;;;;;;;;;;17.28;56.51;101006.00;5078532;28;1095;-46
2023/09/25 04:05:23;;;;;;;;;;;;;;;17.01;55.91;100996.06;5070041;28;1091;-45
2023/09/25 04:07:48;;;;;;;;;;;;;;;16.86;55.57;101009.72;5072263;28;1015;-48
2023/09/25 04:10:14;;;;;;;;;;;;;;;16.75;55.31;101004.16;5058361;28;1003;-47
2023/09/25 04:12:39;;;;;;;;;;;;;;;16.61;55.08;101003.03;5065366;28;1913;-49
2023/09/25 04:15:08;;;;;;;;;;;;;;;16.58;55.06;101014.53;5075578;28;1142;-45
2023/09/25 04:17:34;;;;;;;;;;;;;;;16.56;54.74;101008.47;5058968;28;1070;-48
2023/09/25 04:20:01;;;;;;;;;;;;;;;16.51;54.55;101011.19;5062462;28;1119;-50
2023/09/25 04:22:27;;;;;;;;;;;;;;;16.67;55.60;101015.66;5063886;28;1081;-49
2023/09/25 04:24:52;;;;;;;;;;;;;;;17.60;56.37;101018.66;5078312;28;991;-51
2023/09/25 04:27:18;;;;;;;;;;;;;;;17.12;56.45;101016.09;5062150;28;994;-50
2023/09/25 04:29:44;;;;;;;;;;;;;;;16.93;56.06;101022.09;5058824;28;1206;-48
2023/09/25 04:32:09;;;;;;;;;;;;;;;16.83;55.41;101021.22;5058715;28;963;-49
2023/09/25 04:34:35;;;;;;;;;;;;;;;16.70;55.38;101022.53;5076484;28;1906;-48
2023/09/25 04:37:01;;;;;;;;;;;;;;;16.66;55.04;101015.94;5065952;28;1091;-51
2023/09/25 04:39:27;;;;;;;;;;;;;;;17.21;56.61;101016.44;5071202;28;1027;-50
2023/09/25 04:41:53;;;;;;;;;;;;;;;16.97;56.24;101016.91;5060826;28;1949;-47
2023/09/25 04:44:19;;;;;;;;;;;;;;;16.61;54.32;101019.50;5057611;28;1123;-46
2023/09/25 04:46:45;;;;;;;;;;;;;;;16.42;52.92;101022.72;5076701;28;1161;-52
2023/09/25 04:49:12;;;;;;;;;;;;;;;16.41;51.18;101025.69;5064691;28;1209;-53
2023/09/25 04:51:38;;;;;;;;;;;;;;;16.37;50.50;101025.41;5069339;28;1017;-53
2023/09/25 04:54:05;;;;;;;;;;;;;;;16.30;49.68;101019.34;5061371;28;1980;-54
2023/09/25 04:56:31;;;;;;;;;;;;;;;16.19;49.42;101017.63;5073356;28;1047;-54
2023/09/25 04:58:57;;;;;;;;;;;;;;;16.14;49.03;101025.81;5077905;28;1046;-53
2023/09/25 05:01:23;;;;;;;;;;;;;;;16.24;48.52;101031.34;5066355;28;1046;-54
2023/09/25 05:03:49;;;;;;;;;;;;;;;16.17;48.38;101025.28;5057991;28;1055;-53
2023/09/25 05:06:15;;;;;;;;;;;;;;;16.11;48.39;101027.16;5064721;28;1019;-54
2023/09/25 05:08:41;;;;;;;;;;;;;;;16.15;47.80;101022.81;5058440;28;1019;-54
2023/09/25 05:11:06;;;;;;;;;;;;;;;16.12;47.89;101023.34;5058486;28;1787;-52
2023/09/25 05:13:32;;;;;;;;;;;;;;;16.11;47.71;101021.69;5071148;28;1905;-50
2023/09/25 05:15:57;;;;;;;;;;;;;;;16.14;47.42;101029.38;5059369;28;1139;-50
2023/09/25 05:18:23;;;;;;;;;;;;;;;16.75;49.89;101031.63;5059686;28;1059;-52
2023/09/25 05:20:48;;;;;;;;;;;;;;;16.43;49.76;101029.00;5060106;28;1101;-53
2023/09/25 05:23:14;;;;;;;;;;;;;;;16.41;48.68;101021.03;5076899;28;1082;-50
2023/09/25 05:25:39;;;;;;;;;;;;;;;16.28;48.34;101021.50;5062764;28;1015;-53
2023/09/25 05:28:05;;;;;;;;;;;;;;;16.28;47.86;101029.75;5057618;28;1027;-50
2023/09/25 05:30:30;;;;;;;;;;;;;;;16.29;47.59;101025.91;5073270;28;1105;-51
2023/09/25 05:32:56;;;;;;;;;;;;;;;16.25;47.41;101033.03;5057186;28;1969;-51
2023/09/25 05:35:21;;;;;;;;;;;;;;;16.20;47.24;101031.09;5057714;28;1070;-52
2023/09/25 05:37:48;;;;;;;;;;;;;;;16.11;47.50;101029.09;5065985;28;1186;-52
2023/09/25 05:40:13;;;;;;;;;;;;;;;16.21;47.03;101037.38;5059837;28;1069;-51
2023/09/25 05:42:39;;;;;;;;;;;;;;;16.21;47.09;101037.38;5063155;28;1993;-50
2023/09/25 05:45:05;;;;;;;;;;;;;;;16.19;47.06;101045.88;5058383;28;1023;-52
2023/09/25 05:47:31;;;;;;;;;;;;;;;16.16;47.01;101046.41;5043482;28;1135;-51
2023/09/25 05:49:56;;;;;;;;;;;;;;;16.15;46.73;101047.50;5058224;28;1011;-51
2023/09/25 05:52:22;;;;;;;;;;;;;;;16.14;46.58;101047.75;5062632;28;1233;-48
2023/09/25 05:54:49;;;;;;;;;;;;;;;16.15;46.50;101054.91;5057779;28;1909;-52
2023/09/25 05:57:15;;;;;;;;;;;;;;;16.08;46.79;101050.47;5064323;28;1094;-53
2023/09/25 05:59:40;;;;;;;;;;;;;;;16.05;46.61;101051.00;5057587;28;1023;-51
2023/09/25 06:02:05;;;;;;;;;;;;;;;16.95;48.22;101054.81;5067316;28;1224;-47
2023/09/25 06:04:34;;;;;;;;;;;;;;;16.49;48.74;101057.31;5063083;28;979;-50
2023/09/25 06:06:59;;;;;;;;;;;;;;;16.37;48.45;101052.84;5074245;28;1241;-49
2023/09/25 06:09:25;;;;;;;;;;;;;;;16.30;47.73;101046.78;5067323;28;1158;-46
2023/09/25 06:11:50;;;;;;;;;;;;;;;16.32;47.45;101049.25;5060658;28;1764;-46
2023/09/25 06:14:16;;;;;;;;;;;;;;;16.28;47.36;101050.88;5062400;28;1972;-46
2023/09/25 06:16:41;;;;;;;;;;;;;;;16.21;47.24;101048.34;5056531;28;1125;-49
2023/09/25 06:19:08;;;;;;;;;;;;;;;16.26;47.09;101045.66;5067016;28;1019;-44
2023/09/25 06:21:33;;;;;;;;;;;;;;;16.20;47.12;101058.50;5070897;28;1038;-46
2023/09/25 06:23:59;;;;;;;;;;;;;;;16.85;47.66;101060.25;5059863;28;959;-46
2023/09/25 06:26:28;;;;;;;;;;;;;;;16.63;48.93;101058.47;5060681;28;1229;-43
2023/09/25 06:28:54;;;;;;;;;;;;;;;16.40;48.57;101052.31;5065174;28;1189;-47
2023/09/25 06:31:21;;;;;;;;;;;;;;;16.47;48.19;101062.25;5073256;28;1206;-47
2023/09/25 06:33:46;;;;;;;;;;;;;;;16.34;48.00;101069.00;5075774;28;1905;-48
2023/09/25 06:36:12;;;;;;;;;;;;;;;16.42;47.35;101071.25;5069885;28;1253;-45
2023/09/25 06:38:37;;;;;;;;;;;;;;;16.32;47.54;101074.78;5068547;28;1054;-43
2023/09/25 06:41:03;;;;;;;;;;;;;;;16.34;47.12;101069.84;5072085;28;1942;-45
2023/09/25 06:43:28;;;;;;;;;;;;;;;16.29;47.26;101074.50;5076105;28;1169;-45
2023/09/25 06:45:54;;;;;;;;;;;;;;;16.37;46.70;101066.56;5075379;28;1091;-43
2023/09/25 06:48:19;;;;;;;;;;;;;;;16.34;46.90;101069.84;5075843;28;1334;-47
2023/09/25 06:50:45;;;;;;;;;;;;;;;16.23;47.08;101062.66;5075804;28;1194;-48
2023/09/25 06:53:10;;;;;;;;;;;;;;;16.29;46.83;101066.25;5056676;28;1902;-46
2023/09/25 06:55:37;;;;;;;;;;;;;;;16.29;47.02;101069.00;5041592;28;1139;-48
2023/09/25 06:58:03;;;;;;;;;;;;;;;16.31;46.84;101053.91;5063167;28;1193;-51
2023/09/25 07:00:29;;;;;;;;;;;;;;;16.32;47.09;101061.03;5075765;28;1162;-46
2023/09/25 07:02:54;;;;;;;;;;;;;;;16.24;47.28;101053.31;5061963;28;1075;-47
2023/09/25 07:05:19;;;;;;;;;;;;;;;16.22;47.26;101055.50;5075188;28;1174;-50
2023/09/25 07:07:46;;;;;;;;;;;;;;;16.24;47.13;101061.53;5055517;28;1077;-47
2023/09/25 07:10:12;;;;;;;;;;;;;;;16.30;47.16;101071.47;5067126;28;1024;-45
2023/09/25 07:12:38;;;;;;;;;;;;;;;16.28;47.14;101070.91;5055617;28;1976;-47
2023/09/25 07:15:03;;;;;;;;;;;;;;;16.29;46.99;101083.53;5064077;28;1100;-51
2023/09/25 07:17:29;;;;;;;;;;;;;;;16.37;46.83;101082.22;5074634;28;1047;-49
2023/09/25 07:19:55;;;;;;;;;;;;;;;16.26;46.95;101078.59;5066614;28;1027;-51
2023/09/25 07:22:20;;;;;;;;;;;;;;;16.27;47.10;101082.16;5055423;28;1115;-48
2023/09/25 07:24:46;;;;;;;;;;;;;;;16.32;47.12;101080.25;5057234;28;1028;-49
2023/09/25 07:27:11;;;;;;;;;;;;;;;16.28;47.05;101084.63;5063793;28;1084;-47
2023/09/25 07:29:37;;;;;;;;;;;;;;;16.28;46.98;101070.91;5070865;28;1339;-43
2023/09/25 07:32:03;;;;;;;;;;;;;;;16.33;47.19;101072.88;5065266;28;1085;-46
2023/09/25 07:34:29;;;;;;;;;;;;;;;16.37;46.87;101080.31;5058767;28;1910;-47
2023/09/25 07:36:54;;;;;;;;;;;;;;;16.41;46.94;101086.91;5055164;28;1170;-46
2023/09/25 07:39:22;;;;;;;;;;;;;;;16.29;47.31;101086.28;5071218;28;1043;-48
2023/09/25 07:41:48;;;;;;;;;;;;;;;16.34;47.00;101088.22;5071127;28;1855;-48
2023/09/25 07:44:15;;;;;;;;;;;;;;;16.31;47.18;101089.56;5061635;28;1097;-44
2023/09/25 07:46:41;;;;;;;;;;;;;;;17.06;48.32;101081.22;5064724;28;1279;-51
2023/09/25 07:49:07;;;;;;;;;;;;;;;16.68;48.64;101088.72;5071741;28;1420;-46
2023/09/25 07:51:32;;;;;;;;;;;;;;;16.53;48.78;101089.44;5064227;28;1589;-50
2023/09/25 07:53:58;;;;;;;;;;;;;;;16.51;48.37;101090.78;5069661;28;2051;-50
2023/09/25 07:56:24;;;;;;;;;;;;;;;16.56;47.98;101072.47;5035909;28;1131;-49
2023/09/25 07:58:49;;;;;;;;;;;;;;;16.59;47.55;101085.66;5068136;28;1088;-46
2023/09/25 08:01:15;;;;;;;;;;;;;;;16.57;47.43;101095.25;5064550;28;1102;-51
2023/09/25 08:03:40;;;;;;;;;;;;;;;16.56;47.29;101099.06;5065674;28;1067;-48
2023/09/25 08:06:06;;;;;;;;;;;;;;;16.55;47.36;101094.66;5073151;28;1066;-51
2023/09/25 08:08:32;;;;;;;;;;;;;;;16.54;47.36;101090.28;5054749;28;1137;-49
2023/09/25 08:10:58;;;;;;;;;;;;;;;16.56;47.29;101090.84;5056131;28;1951;-46
2023/09/25 08:13:23;;;;;;;;;;;;;;;16.53;47.41;101088.63;5065162;28;1976;-53
2023/09/25 08:15:48;;;;;;;;;;;;;;;16.53;47.50;101069.41;5067944;28;1102;-48
2023/09/25 08:18:14;;;;;;;;;;;;;;;16.57;47.25;101073.28;5055736;28;1153;-52
2023/09/25 08:20:40;;;;;;;;;;;;;;;16.54;47.54;101068.31;5059230;28;1348;-54
2023/09/25 08:23:05;;;;;;;;;;;;;;;16.51;47.57;101069.69;5058104;28;1246;-55
2023/09/25 08:25:30;;;;;;;;;;;;;;;16.55;47.60;101086.44;5038224;28;1276;-48
2023/09/25 08:27:56;;;;;;;;;;;;;;;16.54;47.51;101076.56;5056321;28;998;-47
2023/09/25 08:30:22;;;;;;;;;;;;;;;16.54;47.36;101071.88;5060349;28;1042;-50
2023/09/25 08:32:48;;;;;;;;;;;;;;;16.48;47.76;101081.19;5058287;28;1910;-49
2023/09/25 08:35:14;;;;;;;;;;;;;;;16.56;47.47;101060.63;5062008;28;1026;-50
2023/09/25 08:37:39;;;;;;;;;;;;;;;16.60;47.47;101078.22;5066741;28;1198;-51
2023/09/25 08:40:05;;;;;;;;;;;;;;;16.53;47.54;101067.47;5078665;28;1288;-54
2023/09/25 08:42:30;;;;;;;;;;;;;;;16.56;47.54;101071.63;5072247;28;1812;-45
2023/09/25 08:44:59;;;;;;;;;;;;;;;16.57;47.42;101063.13;5078034;28;1316;-48
2023/09/25 08:47:24;;;;;;;;;;;;;;;16.61;47.39;101063.41;5074174;28;1122;-47
2023/09/25 08:49:50;;;;;;;;;;;;;;;16.56;47.70;101057.91;5077699;28;1074;-45
2023/09/25 08:52:16;;;;;;;;;;;;;;;16.57;47.70;101067.78;5071602;28;1107;-49
2023/09/25 09:01:04;;;;;;;;;;;;;;;16.59;47.74;101058.19;5256307;23;7360;-46
2023/09/25 09:03:30;;;;;;;;;;;;;;;16.64;47.58;101062.88;4957891;29;1798;-48
2023/09/25 09:05:56;;;;;;;;;;;;;;;16.71;47.29;101057.97;4959226;29;1049;-48
2023/09/25 09:08:22;;;;;;;;;;;;;;;16.72;47.53;101059.63;4959297;29;2102;-51
2023/09/25 09:10:47;;;;;;;;;;;;;;;16.68;47.37;101069.50;4949504;29;2019;-47
2023/09/25 09:13:13;;;;;;;;;;;;;;;16.60;47.92;101064.50;4947112;29;1961;-45
2023/09/25 09:15:38;;;;;;;;;;;;;;;16.61;47.58;101068.91;4942785;29;2082;-49
2023/09/25 09:21:44;;;;;;;;;;;;;;;16.68;47.91;101068.69;4958472;29;990;-48
2023/09/25 09:24:30;;;;;;;;;;;;;;;16.75;47.92;101070.06;4956747;29;886;-47
2023/09/25 09:26:56;;;;;;;;;;;;;;;16.72;47.84;101070.63;4948673;29;1055;-46
2023/09/25 09:29:22;;;;;;;;;;;;;;;16.68;48.23;101061.25;4959432;29;990;-46
2023/09/25 09:31:49;;;;;;;;;;;;;;;16.80;47.79;101084.91;4958871;29;1149;-49
2023/09/25 09:34:15;;;;;;;;;;;;;;;16.76;47.89;101071.72;4959217;29;1906;-50
2023/09/25 09:36:49;;;;;;;;;;;;;;;16.75;47.79;101063.75;4958843;29;1030;-52
2023/09/25 09:39:16;;;;;;;;;;;;;;;16.75;47.87;101058.28;4959140;28;1148;-48
2023/09/25 09:41:41;;;;;;;;;;;;;;;16.74;47.83;101084.06;4958340;29;1094;-51
2023/09/25 09:44:07;;;;;;;;;;;;;;;16.72;47.95;101065.13;4954699;29;1304;-49
2023/09/25 09:46:33;;;;;;;;;;;;;;;16.71;48.06;101084.63;4965383;28;1805;-51
2023/09/25 09:48:58;;;;;;;;;;;;;;;16.71;48.15;101082.69;4962349;28;1315;-52
2023/09/25 09:51:24;;;;;;;;;;;;;;;16.77;47.70;101100.84;4972902;28;1046;-50
2023/09/25 09:53:49;;;;;;;;;;;;;;;16.81;47.50;101092.88;4958051;28;1915;-51
2023/09/25 09:56:16;;;;;;;;;;;;;;;16.78;47.85;101074.22;4965407;28;1085;-48
2023/09/25 09:58:41;;;;;;;;;;;;;;;16.79;47.73;101083.25;4960473;28;1369;-51
2023/09/25 10:01:07;;;;;;;;;;;;;;;16.76;48.03;101082.72;4953300;29;1146;-54
2023/09/25 10:03:32;;;;;;;;;;;;;;;16.81;47.72;101083.84;4958619;28;1291;-56
2023/09/25 10:05:58;;;;;;;;;;;;;;;16.86;47.64;101092.94;4956912;29;1035;-56
2023/09/25 10:08:23;;;;;;;;;;;;;;;16.84;47.81;101086.03;4956935;29;1351;-47
2023/09/25 10:10:50;;;;;;;;;;;;;;;16.83;47.76;101092.63;4968605;28;1160;-48
2023/09/25 10:13:21;;;;;;;;;;;;;;;16.87;47.83;101085.50;4952111;28;2312;-49
2023/09/25 10:15:52;;;;;;;;;;;;;;;16.86;47.86;101098.41;4954889;28;1401;-49
2023/09/25 10:18:18;;;;;;;;;;;;;;;16.87;47.88;101082.75;4956882;28;1355;-48
2023/09/25 10:20:45;;;;;;;;;;;;;;;16.95;47.57;101096.00;4957459;29;1276;-46
2023/09/25 10:23:11;;;;;;;;;;;;;;;16.85;47.86;101080.28;4945863;29;1212;-49
2023/09/25 10:25:42;;;;;;;;;;;;;;;16.91;47.96;101089.41;4970615;28;1252;-46
2023/09/25 10:28:14;;;;;;;;;;;;;;;16.89;47.81;101086.09;4964550;28;1298;-49
2023/09/25 10:30:39;;;;;;;;;;;;;;;16.93;47.82;101081.72;4958242;29;1072;-54
2023/09/25 10:33:05;;;;;;;;;;;;;;;16.94;47.81;101077.88;4950210;29;1975;-53
2023/09/25 10:35:36;;;;;;;;;;;;;;;16.91;47.84;101078.41;4955093;28;1052;-55
2023/09/25 10:38:06;;;;;;;;;;;;;;;17.04;47.77;101086.16;4960892;28;1385;-55
2023/09/25 10:40:32;;;;;;;;;;;;;;;16.94;48.05;101083.34;4956520;28;1165;-49
2023/09/25 10:42:57;;;;;;;;;;;;;;;16.95;48.02;101084.19;4958759;28;1512;-55
2023/09/25 10:45:23;;;;;;;;;;;;;;;16.94;47.85;101091.59;4957315;28;1445;-53
2023/09/25 10:47:48;;;;;;;;;;;;;;;17.07;48.00;101074.63;4957403;28;1029;-52
2023/09/25 10:50:14;;;;;;;;;;;;;;;16.99;47.96;101068.84;4949839;29;1010;-52
2023/09/25 10:52:39;;;;;;;;;;;;;;;16.86;48.21;101076.44;4945244;28;1150;-48
2023/09/25 10:55:05;;;;;;;;;;;;;;;16.96;47.90;101080.34;4952886;28;1983;-53
2023/09/25 10:57:31;;;;;;;;;;;;;;;17.00;47.98;101087.78;4948208;29;1368;-52
2023/09/25 10:59:56;;;;;;;;;;;;;;;16.98;47.77;101073.47;4948576;28;1230;-47
2023/09/25 11:02:22;;;;;;;;;;;;;;;17.00;47.56;101076.81;4966034;28;1362;-47
2023/09/25 11:04:47;;;;;;;;;;;;;;;16.97;48.01;101071.00;4958911;28;970;-45
2023/09/25 11:07:13;;;;;;;;;;;;;;;16.99;47.89;101064.16;4957425;29;1065;-47
2023/09/25 11:09:38;;;;;;;;;;;;;;;17.04;47.49;101072.44;4957906;28;1110;-52
2023/09/25 11:12:04;;;;;;;;;;;;;;;16.99;47.90;101072.41;4958922;28;1033;-48
2023/09/25 11:14:35;;;;;;;;;;;;;;;16.92;48.15;101080.06;4950072;29;1946;-46
2023/09/25 11:17:01;;;;;;;;;;;;;;;16.98;47.72;101073.47;4955918;28;2205;-52
2023/09/25 11:19:28;;;;;;;;;;;;;;;17.03;47.66;101078.19;4964890;28;1064;-48
2023/09/25 11:21:55;;;;;;;;;;;;;;;17.02;47.81;101082.84;4954936;29;938;-49
2023/09/25 11:24:20;;;;;;;;;;;;;;;16.96;47.92;101081.19;4945793;29;1026;-55
2023/09/25 11:26:46;;;;;;;;;;;;;;;17.13;47.53;101074.66;4950371;29;1070;-52
2023/09/25 11:29:12;;;;;;;;;;;;;;;17.03;47.74;101079.00;4955171;29;1146;-54
2023/09/25 11:31:37;;;;;;;;;;;;;;;17.07;48.24;101066.38;4956857;29;1296;-56
2023/09/25 11:34:03;;;;;;;;;;;;;;;17.29;49.54;101070.84;4944726;29;2007;-54
2023/09/25 11:36:30;;;;;;;;;;;;;;;17.28;48.93;101082.94;4952180;29;1074;-49
2023/09/25 11:38:57;;;;;;;;;;;;;;;17.23;48.84;101082.91;4957382;29;1049;-52
2023/09/25 11:41:22;;;;;;;;;;;;;;;17.18;48.62;101078.25;4950976;28;1347;-57
2023/09/25 11:43:48;;;;;;;;;;;;;;;17.14;48.42;101073.53;4949933;29;1086;-53
2023/09/25 11:46:13;;;;;;;;;;;;;;;17.26;47.81;101074.13;4953530;29;1106;-53
2023/09/25 11:48:39;;;;;;;;;;;;;;;17.18;47.97;101081.00;4946699;29;1006;-53
2023/09/25 11:51:05;;;;;;;;;;;;;;;17.16;47.85;101076.84;4944357;29;985;-55
2023/09/25 11:53:31;;;;;;;;;;;;;;;17.20;47.69;101070.53;4956599;28;1973;-55
2023/09/25 11:55:56;;;;;;;;;;;;;;;17.17;47.49;101053.78;4951019;29;1017;-54
2023/09/25 11:58:22;;;;;;;;;;;;;;;17.18;47.33;101070.00;4961015;28;1006;-55
2023/09/25 12:00:48;;;;;;;;;;;;;;;17.14;47.45;101063.41;4952105;28;1032;-56
2023/09/25 12:03:13;;;;;;;;;;;;;;;17.04;47.71;101083.41;4948641;29;1009;-55
2023/09/25 12:05:39;;;;;;;;;;;;;;;17.13;47.53;101080.16;4957642;29;1129;-54
2023/09/25 12:08:06;;;;;;;;;;;;;;;17.19;47.30;101062.56;4960490;29;1279;-51
2023/09/25 12:10:37;;;;;;;;;;;;;;;17.12;47.29;101064.75;4960773;29;1085;-56
2023/09/25 12:13:03;;;;;;;;;;;;;;;17.14;47.32;101060.66;4952713;28;1973;-50
2023/09/25 12:15:29;;;;;;;;;;;;;;;17.19;47.52;101062.56;4957279;29;1120;-48
2023/09/25 12:17:54;;;;;;;;;;;;;;;17.10;47.37;101065.84;4959884;29;1031;-54
2023/09/25 12:20:21;;;;;;;;;;;;;;;17.06;47.80;101075.72;4960328;28;1053;-53
2023/09/25 12:22:46;;;;;;;;;;;;;;;17.12;47.59;101076.56;4960356;29;1271;-54
2023/09/25 12:25:12;;;;;;;;;;;;;;;17.06;47.62;101070.22;4965180;28;1105;-53
2023/09/25 12:27:39;;;;;;;;;;;;;;;17.12;47.42;101084.81;4959709;28;1100;-55
2023/09/25 12:30:07;;;;;;;;;;;;;;;17.13;47.41;101066.41;4954169;29;1073;-53
2023/09/25 12:32:33;;;;;;;;;;;;;;;17.09;47.38;101066.13;4953185;28;1191;-49
2023/09/25 12:34:58;;;;;;;;;;;;;;;17.14;47.57;101074.38;4958669;28;1979;-52
2023/09/25 12:37:25;;;;;;;;;;;;;;;17.12;47.56;101076.56;4947620;29;1085;-51
2023/09/25 12:39:51;;;;;;;;;;;;;;;17.08;47.24;101079.03;4959955;29;1042;-48
2023/09/25 12:42:16;;;;;;;;;;;;;;;17.08;47.37;101080.94;4959760;29;1101;-50
2023/09/25 12:44:42;;;;;;;;;;;;;;;17.16;47.33;101080.41;4959916;29;1018;-48
2023/09/25 12:47:07;;;;;;;;;;;;;;;17.07;47.57;101076.56;4960213;28;1104;-49
2023/09/25 12:49:33;;;;;;;;;;;;;;;17.15;47.20;101083.44;4955060;29;952;-49
2023/09/25 12:51:59;;;;;;;;;;;;;;;17.04;47.70;101083.41;4947412;28;1049;-51